14Y

Todd Field Airport

Long Prairie, Minnesota, USA
METAR K14Y 260555Z AUTO 15007KT 10SM CLR 05/00 A2988 RMK AO2
Observed Flight Rules
Apr-26 @ 05:55 UTC (8 minutes ago) Visual Flight Rules
Wind Visibility Clouds
150° at 7 knots 10 miles
  • Clear skies
Temperatures Readings
Current 5°C / 41°F
Dewpoint 0°C / 32°F
Humidity 70%
Altimeter 29.88" Hg
Pressure 1012 hPa
Elevation 406
METAR K14Y 260555Z AUTO 15007KT 10SM CLR 05/00 A2988 RMK AO2
Observed Flight Rules
Apr-26 @ 05:55 UTC
(8 minutes ago)
VFR
Wind Visibility
150° at 7 knots 10 miles
Clouds
  • Clear skies
Temperature Dewpoint
5°C / 41°F 0°C / 32°F
Humidity Altimeter Pressure
70% 29.88" Hg 1012 hPa